Time;durP1;ratioP1;P1;durP2;ratioP2;P2;SDS_P1;SDS_P2;PMS_P1;PMS_P2;Temp;Humidity;BMP_temperature;BMP_pressure;BME280_temperature;BME280_humidity;BME280_pressure;Samples;Min_cycle;Max_cycle;Signal;HPM_P1;HPM_P2
2021/04/26 00:00:38;;;;;;;6.90;1.48;;;;;;;;;;5091286;28;20020;-74
2021/04/26 00:03:04;;;;;;;5.50;1.80;;;;;;;;;;5093319;28;20493;-73
2021/04/26 00:05:30;;;;;;;8.93;1.67;;;;;;;;;;5094246;28;20024;-74
2021/04/26 00:07:57;;;;;;;9.15;1.70;;;;;;;;;;5093942;28;20016;-75
2021/04/26 00:10:23;;;;;;;11.48;2.20;;;;;;;;;;5091341;28;20024;-73
2021/04/26 00:12:49;;;;;;;9.10;1.88;;;;;;;;;;5092880;28;20020;-75
2021/04/26 00:15:19;;;;;;;10.35;1.90;;;;;;;;;;5093550;28;20089;-75
2021/04/26 00:17:46;;;;;;;9.52;1.60;;;;;;;;;;5090222;28;20063;-75
2021/04/26 00:20:13;;;;;;;7.38;1.65;;;;;;;;;;5093124;28;20031;-74
2021/04/26 00:22:39;;;;;;;7.32;1.48;;;;;;;;;;5089581;28;20097;-75
2021/04/26 00:25:06;;;;;;;12.20;2.17;;;;;;;;;;5093910;28;20087;-76
2021/04/26 00:27:34;;;;;;;11.15;2.33;;;;;;;;;;5093690;28;20044;-74
2021/04/26 00:30:00;;;;;;;11.45;1.58;;;;;;;;;;5090964;28;20032;-75
2021/04/26 00:32:26;;;;;;;9.13;1.88;;;;;;;;;;5093329;28;20110;-76
2021/04/26 00:34:52;;;;;;;8.45;1.65;;;;;;;;;;5093191;28;20032;-78
2021/04/26 00:37:18;;;;;;;9.55;1.52;;;;;;;;;;5091002;28;20032;-75
2021/04/26 00:39:44;;;;;;;4.75;1.30;;;;;;;;;;5087716;28;20032;-75
2021/04/26 00:42:10;;;;;;;13.10;1.85;;;;;;;;;;5090157;28;20031;-74
2021/04/26 00:44:36;;;;;;;9.32;1.55;;;;;;;;;;5093582;28;20032;-75
2021/04/26 00:47:02;;;;;;;5.97;1.50;;;;;;;;;;5093351;28;20035;-74
2021/04/26 00:49:28;;;;;;;6.70;1.45;;;;;;;;;;5091164;28;20059;-76
2021/04/26 00:51:54;;;;;;;7.38;1.98;;;;;;;;;;5090732;28;20031;-76
2021/04/26 00:54:20;;;;;;;11.93;2.13;;;;;;;;;;5093426;28;20020;-75
2021/04/26 00:56:47;;;;;;;7.85;1.70;;;;;;;;;;5091578;28;20051;-75
2021/04/26 00:59:13;;;;;;;6.00;1.52;;;;;;;;;;5089774;28;20095;-75
2021/04/26 01:01:39;;;;;;;8.98;1.42;;;;;;;;;;5092413;28;20020;-76
2021/04/26 01:04:05;;;;;;;14.23;1.90;;;;;;;;;;5093397;28;20020;-75
2021/04/26 01:06:31;;;;;;;17.70;2.45;;;;;;;;;;5091220;28;20058;-76
2021/04/26 01:08:57;;;;;;;7.57;1.80;;;;;;;;;;5090585;28;20044;-72
2021/04/26 01:11:26;;;;;;;8.13;1.50;;;;;;;;;;5091868;28;20028;-76
2021/04/26 01:14:04;;;;;;;7.78;2.05;;;;;;;;;;5084397;28;20025;-77
2021/04/26 01:16:35;;;;;;;10.63;1.90;;;;;;;;;;5103319;28;20032;-76
2021/04/26 01:19:01;;;;;;;9.90;2.10;;;;;;;;;;5096928;28;20032;-74
2021/04/26 01:21:42;;;;;;;7.40;1.33;;;;;;;;;;5096058;28;20090;-77
2021/04/26 01:24:08;;;;;;;8.18;2.58;;;;;;;;;;5092887;28;20057;-76
2021/04/26 01:26:53;;;;;;;8.70;1.85;;;;;;;;;;5092153;28;20028;-77
2021/04/26 01:29:37;;;;;;;7.70;1.63;;;;;;;;;;5089571;28;20039;-79
2021/04/26 01:32:22;;;;;;;9.32;1.80;;;;;;;;;;5091640;28;20032;-77
2021/04/26 01:34:49;;;;;;;7.95;2.20;;;;;;;;;;5090094;28;20032;-76
2021/04/26 01:37:16;;;;;;;7.03;1.88;;;;;;;;;;5091601;28;20035;-76
2021/04/26 01:39:43;;;;;;;13.95;1.95;;;;;;;;;;5088619;28;20474;-77
2021/04/26 01:42:14;;;;;;;11.50;2.58;;;;;;;;;;5091909;28;20042;-77
2021/04/26 01:44:40;;;;;;;7.68;1.90;;;;;;;;;;5091651;28;20590;-76
2021/04/26 01:47:07;;;;;;;4.93;1.88;;;;;;;;;;5091674;28;20027;-75
2021/04/26 01:49:34;;;;;;;8.23;1.90;;;;;;;;;;5090151;28;20141;-74
2021/04/26 01:52:00;;;;;;;11.07;2.10;;;;;;;;;;5095893;28;20028;-74
2021/04/26 01:54:28;;;;;;;8.13;1.88;;;;;;;;;;5092373;28;20024;-75
2021/04/26 01:56:55;;;;;;;8.55;1.90;;;;;;;;;;5090937;28;20023;-76
2021/04/26 01:59:21;;;;;;;15.13;2.47;;;;;;;;;;5073839;28;20089;-75
2021/04/26 02:01:51;;;;;;;10.38;2.55;;;;;;;;;;5089657;28;20028;-80
2021/04/26 02:04:18;;;;;;;9.25;1.90;;;;;;;;;;5091193;28;20024;-76
2021/04/26 02:06:45;;;;;;;10.75;3.42;;;;;;;;;;5089305;28;20567;-77
2021/04/26 02:09:11;;;;;;;9.10;2.50;;;;;;;;;;5089816;28;20013;-78
2021/04/26 02:11:37;;;;;;;11.48;2.55;;;;;;;;;;5090190;28;20170;-76
2021/04/26 02:14:03;;;;;;;10.35;2.60;;;;;;;;;;5091178;28;20038;-75
2021/04/26 02:16:30;;;;;;;10.27;2.95;;;;;;;;;;5091451;28;20024;-75
2021/04/26 02:18:56;;;;;;;9.65;2.67;;;;;;;;;;5089584;28;20028;-77
2021/04/26 02:21:22;;;;;;;9.70;2.40;;;;;;;;;;5091804;28;20273;-75
2021/04/26 02:23:48;;;;;;;9.98;3.13;;;;;;;;;;5091181;28;20024;-78
2021/04/26 02:26:14;;;;;;;12.98;2.92;;;;;;;;;;5091425;28;20047;-77
2021/04/26 02:28:40;;;;;;;9.25;2.40;;;;;;;;;;5090088;28;20024;-82
2021/04/26 02:31:07;;;;;;;16.38;2.65;;;;;;;;;;5088826;28;20039;-77
2021/04/26 02:33:35;;;;;;;16.45;2.38;;;;;;;;;;5090912;28;20024;-77
2021/04/26 02:36:06;;;;;;;11.60;2.85;;;;;;;;;;5090676;28;20028;-77
2021/04/26 02:38:40;;;;;;;9.40;2.35;;;;;;;;;;5090224;28;20085;-79
2021/04/26 02:41:14;;;;;;;12.15;2.63;;;;;;;;;;5090573;28;20517;-78
2021/04/26 02:43:41;;;;;;;11.02;2.55;;;;;;;;;;5088598;28;20065;-78
2021/04/26 02:46:08;;;;;;;10.73;3.67;;;;;;;;;;5089483;28;20020;-77
2021/04/26 02:48:36;;;;;;;7.32;2.22;;;;;;;;;;5090178;28;20027;-83
2021/04/26 02:51:02;;;;;;;12.40;2.75;;;;;;;;;;5086570;28;20032;-76
2021/04/26 02:53:29;;;;;;;12.85;3.00;;;;;;;;;;5086756;28;20024;-76
2021/04/26 02:56:09;;;;;;;11.15;2.45;;;;;;;;;;5087302;28;20032;-77
2021/04/26 02:58:36;;;;;;;11.93;2.63;;;;;;;;;;5088561;28;20413;-79
2021/04/26 03:01:06;;;;;;;9.68;2.20;;;;;;;;;;5088409;28;20085;-77
2021/04/26 03:03:33;;;;;;;10.50;3.15;;;;;;;;;;5090542;28;20023;-77
2021/04/26 03:06:00;;;;;;;9.55;2.50;;;;;;;;;;5090296;28;20081;-78
2021/04/26 03:08:27;;;;;;;7.50;2.55;;;;;;;;;;5089673;28;20025;-78
2021/04/26 03:10:53;;;;;;;13.20;3.45;;;;;;;;;;5089379;28;20482;-77
2021/04/26 03:13:20;;;;;;;14.23;3.00;;;;;;;;;;5091256;28;20024;-77
2021/04/26 03:15:46;;;;;;;10.85;2.63;;;;;;;;;;5094209;28;20485;-76
2021/04/26 03:18:13;;;;;;;10.68;2.67;;;;;;;;;;5094502;28;20099;-76
2021/04/26 03:20:39;;;;;;;13.68;3.03;;;;;;;;;;5097474;28;20113;-77
2021/04/26 03:23:06;;;;;;;8.88;2.65;;;;;;;;;;5089627;28;20040;-77
2021/04/26 03:25:32;;;;;;;7.45;2.65;;;;;;;;;;5090720;28;20024;-77
2021/04/26 03:27:58;;;;;;;13.18;3.38;;;;;;;;;;5089209;28;20020;-76
2021/04/26 03:30:25;;;;;;;13.73;2.45;;;;;;;;;;5088984;28;20108;-76
2021/04/26 03:32:52;;;;;;;8.77;2.35;;;;;;;;;;5089028;28;20027;-78
2021/04/26 03:35:19;;;;;;;10.65;3.00;;;;;;;;;;5090790;28;20040;-77
2021/04/26 03:37:46;;;;;;;17.30;3.92;;;;;;;;;;5089460;28;20502;-76
2021/04/26 03:40:15;;;;;;;14.43;2.63;;;;;;;;;;5088944;28;20040;-77
2021/04/26 03:42:41;;;;;;;13.05;2.97;;;;;;;;;;5088245;28;20051;-76
2021/04/26 03:45:07;;;;;;;17.27;3.08;;;;;;;;;;5090076;28;20024;-77
2021/04/26 03:47:33;;;;;;;12.27;3.08;;;;;;;;;;5090250;28;20017;-75
2021/04/26 03:50:00;;;;;;;14.43;3.67;;;;;;;;;;5090068;28;20036;-75
2021/04/26 03:52:26;;;;;;;8.98;2.85;;;;;;;;;;5092849;28;20016;-76
2021/04/26 03:54:52;;;;;;;10.30;2.85;;;;;;;;;;5087755;28;20028;-76
2021/04/26 03:57:18;;;;;;;11.18;3.22;;;;;;;;;;5089556;28;20023;-75
2021/04/26 03:59:44;;;;;;;8.30;2.78;;;;;;;;;;5084809;28;20495;-78
2021/04/26 04:02:10;;;;;;;11.27;2.90;;;;;;;;;;5088964;28;20687;-77
2021/04/26 04:04:36;;;;;;;12.43;3.40;;;;;;;;;;5089616;28;20036;-75
2021/04/26 04:07:02;;;;;;;15.45;3.30;;;;;;;;;;5089506;28;20028;-77
2021/04/26 04:09:28;;;;;;;7.30;2.60;;;;;;;;;;5080109;28;20117;-78
2021/04/26 04:11:54;;;;;;;10.35;3.03;;;;;;;;;;5089987;28;20028;-76
2021/04/26 04:14:20;;;;;;;9.82;2.80;;;;;;;;;;5088653;28;20107;-76
2021/04/26 04:16:46;;;;;;;14.43;3.22;;;;;;;;;;5088604;28;20039;-76
2021/04/26 04:19:12;;;;;;;18.45;3.55;;;;;;;;;;5090789;28;20423;-76
2021/04/26 04:21:38;;;;;;;13.05;3.30;;;;;;;;;;5082452;28;20040;-76
2021/04/26 04:24:04;;;;;;;14.02;3.30;;;;;;;;;;5087572;28;20020;-74
2021/04/26 04:26:30;;;;;;;12.52;3.45;;;;;;;;;;5089880;28;20374;-76
2021/04/26 04:28:57;;;;;;;14.05;3.17;;;;;;;;;;5088068;28;20048;-79
2021/04/26 04:31:23;;;;;;;11.07;3.13;;;;;;;;;;5092785;28;20028;-76
2021/04/26 04:33:49;;;;;;;10.95;3.08;;;;;;;;;;5091198;28;20028;-77
2021/04/26 04:36:16;;;;;;;15.35;2.67;;;;;;;;;;5088964;28;20029;-76
2021/04/26 04:38:42;;;;;;;16.15;4.03;;;;;;;;;;5087760;28;20081;-76
2021/04/26 04:41:08;;;;;;;11.30;3.13;;;;;;;;;;5093023;28;20082;-77
2021/04/26 04:43:34;;;;;;;10.68;2.97;;;;;;;;;;5091414;28;20043;-76
2021/04/26 04:46:00;;;;;;;11.65;3.00;;;;;;;;;;5092692;28;20107;-76
2021/04/26 04:48:27;;;;;;;12.85;3.63;;;;;;;;;;5080747;28;20033;-76
2021/04/26 04:50:53;;;;;;;11.18;4.38;;;;;;;;;;5094623;28;20111;-77
2021/04/26 04:53:19;;;;;;;9.95;3.00;;;;;;;;;;5091652;28;20020;-76
2021/04/26 04:55:45;;;;;;;9.80;3.10;;;;;;;;;;5093775;28;20024;-75
2021/04/26 04:58:11;;;;;;;13.05;3.33;;;;;;;;;;5092554;28;20086;-74
2021/04/26 05:00:37;;;;;;;9.38;2.92;;;;;;;;;;5091964;28;20561;-75
2021/04/26 05:03:03;;;;;;;14.02;4.28;;;;;;;;;;5092894;28;20040;-75
2021/04/26 05:05:29;;;;;;;8.60;2.65;;;;;;;;;;5091122;28;20024;-68
2021/04/26 05:07:55;;;;;;;9.65;2.70;;;;;;;;;;5093295;28;20031;-77
2021/04/26 05:10:21;;;;;;;19.42;3.13;;;;;;;;;;5092108;28;20031;-76
2021/04/26 05:12:47;;;;;;;10.85;2.80;;;;;;;;;;5092391;28;20028;-76
2021/04/26 05:15:14;;;;;;;9.02;3.20;;;;;;;;;;5091874;28;20020;-77
2021/04/26 05:17:40;;;;;;;13.40;3.15;;;;;;;;;;5074329;28;20040;-76
2021/04/26 05:20:07;;;;;;;9.30;2.85;;;;;;;;;;5095530;28;20039;-75
2021/04/26 05:22:34;;;;;;;12.05;3.47;;;;;;;;;;5091452;28;20155;-75
2021/04/26 05:25:01;;;;;;;13.27;2.97;;;;;;;;;;5092677;28;20028;-76
2021/04/26 05:27:28;;;;;;;9.93;2.95;;;;;;;;;;5092216;28;20074;-77
2021/04/26 05:29:54;;;;;;;12.80;3.38;;;;;;;;;;5091529;28;20043;-78
2021/04/26 05:32:20;;;;;;;13.23;3.83;;;;;;;;;;5092282;28;20393;-76
2021/04/26 05:34:46;;;;;;;10.05;2.58;;;;;;;;;;5092284;28;20028;-75
2021/04/26 05:37:12;;;;;;;14.57;3.00;;;;;;;;;;5092049;28;20020;-76
2021/04/26 05:39:38;;;;;;;12.45;2.97;;;;;;;;;;5089002;28;20782;-75
2021/04/26 05:42:04;;;;;;;10.98;3.28;;;;;;;;;;5091167;28;20486;-77
2021/04/26 05:44:30;;;;;;;9.70;2.97;;;;;;;;;;5091729;28;20070;-77
2021/04/26 05:46:57;;;;;;;12.48;2.63;;;;;;;;;;5090659;28;20046;-75
2021/04/26 05:49:23;;;;;;;6.88;2.53;;;;;;;;;;5091397;28;20070;-75
2021/04/26 05:51:49;;;;;;;11.30;3.53;;;;;;;;;;5091173;28;20016;-75
2021/04/26 05:54:15;;;;;;;12.73;3.40;;;;;;;;;;5091615;28;20036;-76
2021/04/26 05:56:41;;;;;;;10.48;2.85;;;;;;;;;;5090942;28;20082;-77
2021/04/26 05:59:07;;;;;;;11.27;2.85;;;;;;;;;;5090742;28;20031;-78
2021/04/26 06:01:33;;;;;;;18.35;3.42;;;;;;;;;;5091181;28;20032;-76
2021/04/26 06:03:59;;;;;;;8.60;2.70;;;;;;;;;;5091618;28;20032;-76
2021/04/26 06:06:27;;;;;;;12.07;3.60;;;;;;;;;;5089441;28;20083;-72
2021/04/26 06:08:53;;;;;;;8.90;2.92;;;;;;;;;;5091255;28;20055;-76
2021/04/26 06:11:19;;;;;;;8.90;2.55;;;;;;;;;;5091801;28;20024;-74
2021/04/26 06:13:45;;;;;;;7.60;2.47;;;;;;;;;;5084588;28;20028;-75
2021/04/26 06:16:11;;;;;;;12.40;2.65;;;;;;;;;;5093154;28;20030;-74
2021/04/26 06:18:37;;;;;;;10.85;2.78;;;;;;;;;;5090376;28;20065;-75
2021/04/26 06:21:03;;;;;;;8.52;3.05;;;;;;;;;;5096350;28;20053;-68
2021/04/26 06:23:29;;;;;;;14.32;3.85;;;;;;;;;;5088231;28;20028;-77
2021/04/26 06:25:55;;;;;;;11.27;2.90;;;;;;;;;;5090325;28;20039;-75
2021/04/26 06:28:21;;;;;;;7.28;2.05;;;;;;;;;;5090556;28;20032;-77
2021/04/26 06:30:47;;;;;;;8.57;2.80;;;;;;;;;;5090020;28;20032;-71
2021/04/26 06:33:15;;;;;;;9.40;2.63;;;;;;;;;;5091154;28;20447;-78
2021/04/26 06:35:45;;;;;;;11.95;3.42;;;;;;;;;;5081029;28;20029;-77
2021/04/26 06:38:11;;;;;;;14.65;3.53;;;;;;;;;;5086816;28;20062;-71
2021/04/26 06:40:38;;;;;;;11.23;3.33;;;;;;;;;;5089610;28;20028;-75
2021/04/26 06:43:04;;;;;;;11.70;3.35;;;;;;;;;;5084314;28;20039;-74
2021/04/26 06:45:30;;;;;;;10.98;2.75;;;;;;;;;;5085783;28;20031;-75
2021/04/26 06:47:56;;;;;;;9.82;2.67;;;;;;;;;;5085591;28;20035;-75
2021/04/26 06:50:23;;;;;;;8.90;2.92;;;;;;;;;;5088451;28;20027;-76
2021/04/26 06:52:50;;;;;;;9.43;3.28;;;;;;;;;;5082282;28;20028;-72
2021/04/26 06:55:17;;;;;;;11.57;2.92;;;;;;;;;;5088560;28;20035;-72
2021/04/26 06:57:43;;;;;;;11.18;2.65;;;;;;;;;;5088043;28;20028;-74
2021/04/26 07:00:09;;;;;;;9.98;2.67;;;;;;;;;;5085580;28;20123;-73
2021/04/26 07:02:35;;;;;;;10.38;2.45;;;;;;;;;;5090226;28;20036;-77
2021/04/26 07:05:01;;;;;;;6.90;2.80;;;;;;;;;;5091111;28;20540;-70
2021/04/26 07:07:28;;;;;;;11.77;2.83;;;;;;;;;;5086643;28;20046;-71
2021/04/26 07:09:54;;;;;;;6.57;2.50;;;;;;;;;;5083812;28;20513;-74
2021/04/26 07:12:20;;;;;;;11.48;2.97;;;;;;;;;;5082623;28;20710;-79
2021/04/26 07:14:46;;;;;;;12.10;2.97;;;;;;;;;;5088208;28;20081;-74
2021/04/26 07:17:12;;;;;;;7.60;2.30;;;;;;;;;;5088861;28;20036;-74
2021/04/26 07:19:39;;;;;;;10.60;2.83;;;;;;;;;;5094815;28;20059;-74
2021/04/26 07:22:05;;;;;;;8.25;2.30;;;;;;;;;;5090468;28;20047;-75
2021/04/26 07:24:31;;;;;;;8.30;2.72;;;;;;;;;;5084967;28;21609;-77
2021/04/26 07:26:57;;;;;;;9.57;2.22;;;;;;;;;;5087898;28;20028;-74
2021/04/26 07:29:23;;;;;;;14.30;2.55;;;;;;;;;;5084261;28;20025;-77
2021/04/26 07:31:49;;;;;;;6.85;2.70;;;;;;;;;;5088987;28;20031;-76
2021/04/26 07:34:15;;;;;;;10.13;2.80;;;;;;;;;;5085295;28;20414;-76
2021/04/26 07:36:41;;;;;;;7.90;2.22;;;;;;;;;;5086116;28;20030;-75
2021/04/26 07:39:08;;;;;;;12.77;2.60;;;;;;;;;;5084452;28;20115;-76
2021/04/26 07:41:35;;;;;;;10.98;2.40;;;;;;;;;;5084756;28;20069;-74
2021/04/26 07:44:01;;;;;;;7.78;2.40;;;;;;;;;;5085585;28;20078;-75
2021/04/26 07:46:27;;;;;;;6.80;2.53;;;;;;;;;;5084795;28;20021;-74
2021/04/26 07:48:53;;;;;;;10.65;2.85;;;;;;;;;;5082383;28;20044;-74
2021/04/26 07:51:19;;;;;;;9.20;2.53;;;;;;;;;;5085866;28;20029;-75
2021/04/26 07:53:45;;;;;;;7.75;2.08;;;;;;;;;;5082074;28;20024;-74
2021/04/26 07:56:12;;;;;;;9.85;2.13;;;;;;;;;;5086474;28;20047;-75
2021/04/26 07:58:38;;;;;;;7.15;1.95;;;;;;;;;;5086575;28;20024;-76
2021/04/26 08:01:04;;;;;;;9.23;2.70;;;;;;;;;;5084647;28;20036;-75
2021/04/26 08:03:30;;;;;;;10.95;2.88;;;;;;;;;;5086687;28;20036;-75
2021/04/26 08:05:56;;;;;;;8.93;2.58;;;;;;;;;;5088742;28;20115;-74
2021/04/26 08:08:23;;;;;;;10.27;2.90;;;;;;;;;;5090258;28;20056;-73
2021/04/26 08:10:49;;;;;;;7.95;2.33;;;;;;;;;;5090706;28;20012;-73
2021/04/26 08:13:15;;;;;;;9.38;2.70;;;;;;;;;;5092069;28;20393;-76
2021/04/26 08:15:41;;;;;;;8.93;2.55;;;;;;;;;;5086390;28;20024;-71
2021/04/26 08:18:07;;;;;;;12.68;2.47;;;;;;;;;;5086310;28;20028;-72
2021/04/26 08:20:35;;;;;;;8.32;2.60;;;;;;;;;;5082893;28;20510;-72
2021/04/26 08:23:01;;;;;;;14.23;2.80;;;;;;;;;;5080382;28;20028;-75
2021/04/26 08:25:27;;;;;;;9.85;2.70;;;;;;;;;;5086622;28;20043;-72
2021/04/26 08:27:56;;;;;;;7.75;2.33;;;;;;;;;;5092547;28;20050;-71
2021/04/26 08:30:22;;;;;;;10.32;2.78;;;;;;;;;;5084950;28;20031;-73
2021/04/26 08:32:48;;;;;;;15.43;3.08;;;;;;;;;;5092809;28;20039;-74
2021/04/26 08:35:14;;;;;;;9.13;2.67;;;;;;;;;;5088265;28;20526;-72
2021/04/26 08:37:40;;;;;;;7.40;2.60;;;;;;;;;;5082327;28;20024;-75
2021/04/26 08:40:06;;;;;;;10.85;2.50;;;;;;;;;;5090565;28;20115;-76
2021/04/26 08:42:32;;;;;;;8.30;2.60;;;;;;;;;;5092988;28;20028;-75
2021/04/26 08:44:59;;;;;;;10.02;2.67;;;;;;;;;;5092920;28;20020;-74
2021/04/26 08:47:25;;;;;;;12.48;3.92;;;;;;;;;;5091086;28;20161;-75
2021/04/26 08:49:56;;;;;;;7.85;2.17;;;;;;;;;;5091108;28;20048;-74
2021/04/26 08:52:22;;;;;;;9.02;2.88;;;;;;;;;;5078155;28;20111;-73
2021/04/26 08:54:48;;;;;;;7.82;2.78;;;;;;;;;;5087231;28;20409;-75
2021/04/26 08:57:15;;;;;;;9.75;2.63;;;;;;;;;;5091287;28;20035;-73
2021/04/26 08:59:42;;;;;;;6.47;2.28;;;;;;;;;;5091397;28;20440;-73
2021/04/26 09:02:09;;;;;;;7.57;2.45;;;;;;;;;;5087274;28;20028;-73
2021/04/26 09:04:36;;;;;;;9.32;2.40;;;;;;;;;;5090468;28;20020;-76
2021/04/26 09:07:03;;;;;;;6.22;2.50;;;;;;;;;;5089077;28;20078;-73
2021/04/26 09:09:55;;;;;;;9.77;2.55;;;;;;;;;;5085736;28;20027;-73
2021/04/26 09:12:31;;;;;;;8.55;2.50;;;;;;;;;;5087741;28;20032;-75
2021/04/26 09:15:04;;;;;;;10.05;2.72;;;;;;;;;;5088101;28;20043;-75
2021/04/26 09:17:44;;;;;;;6.78;1.95;;;;;;;;;;5084057;28;20063;-73
2021/04/26 09:20:16;;;;;;;13.15;2.97;;;;;;;;;;5086920;28;20089;-74
2021/04/26 09:22:42;;;;;;;9.48;3.08;;;;;;;;;;5090674;28;20489;-74
2021/04/26 09:25:27;;;;;;;12.38;2.42;;;;;;;;;;5089666;28;20501;-74
2021/04/26 09:27:54;;;;;;;13.45;2.70;;;;;;;;;;5087515;28;20539;-72
2021/04/26 09:30:39;;;;;;;9.27;3.20;;;;;;;;;;5083803;28;20118;-74
2021/04/26 09:33:16;;;;;;;9.18;3.20;;;;;;;;;;5085570;28;20028;-74
2021/04/26 09:35:43;;;;;;;10.93;2.67;;;;;;;;;;5087036;28;20028;-75
2021/04/26 09:38:25;;;;;;;9.88;2.25;;;;;;;;;;5087203;28;20146;-76
2021/04/26 09:41:30;;;;;;;7.63;2.03;;;;;;;;;;5088701;28;20039;-74
2021/04/26 09:44:02;;;;;;;6.82;1.90;;;;;;;;;;5003451;28;20057;-75
2021/04/26 09:46:40;;;;;;;8.35;2.30;;;;;;;;;;5001273;28;20097;-75
2021/04/26 09:49:10;;;;;;;12.43;2.50;;;;;;;;;;5045440;28;20064;-75
2021/04/26 09:51:36;;;;;;;6.40;1.75;;;;;;;;;;5085979;28;20024;-75
2021/04/26 09:54:02;;;;;;;6.18;1.85;;;;;;;;;;5090180;28;20024;-75
2021/04/26 09:56:30;;;;;;;12.90;3.65;;;;;;;;;;5087493;28;20028;-75
2021/04/26 09:58:57;;;;;;;11.43;2.00;;;;;;;;;;5087656;28;20028;-75
2021/04/26 10:01:23;;;;;;;10.38;2.35;;;;;;;;;;5089084;28;20031;-74
2021/04/26 10:03:50;;;;;;;9.95;2.13;;;;;;;;;;5086860;28;21637;-75
2021/04/26 10:06:16;;;;;;;7.28;1.75;;;;;;;;;;5089908;28;20505;-76
2021/04/26 10:08:46;;;;;;;8.48;2.00;;;;;;;;;;5084820;28;20561;-76
2021/04/26 10:11:13;;;;;;;9.18;2.00;;;;;;;;;;5089366;28;20012;-77
2021/04/26 10:13:39;;;;;;;9.23;2.13;;;;;;;;;;5088729;28;20633;-72
2021/04/26 10:16:08;;;;;;;11.02;2.05;;;;;;;;;;5090086;28;20028;-74
2021/04/26 10:18:35;;;;;;;12.48;2.15;;;;;;;;;;5088968;28;20297;-75
2021/04/26 10:21:03;;;;;;;7.82;1.90;;;;;;;;;;5083400;28;20044;-74
2021/04/26 10:23:34;;;;;;;13.65;2.40;;;;;;;;;;5086875;28;20035;-69
2021/04/26 10:26:00;;;;;;;;;;;;;;;;;;5088321;28;20035;-74
2021/04/26 10:28:29;;;;;;;12.60;2.33;;;;;;;;;;5088249;28;19908;-74
2021/04/26 10:31:00;;;;;;;17.67;2.38;;;;;;;;;;5088488;28;20573;-75
2021/04/26 10:33:26;;;;;;;9.60;2.40;;;;;;;;;;5082330;28;20025;-74
2021/04/26 10:35:52;;;;;;;7.97;1.88;;;;;;;;;;5074697;28;20028;-73
2021/04/26 10:38:37;;;;;;;10.75;2.45;;;;;;;;;;5078497;28;20736;-70
2021/04/26 10:41:04;;;;;;;6.90;2.20;;;;;;;;;;5088069;28;20039;-73
2021/04/26 10:43:31;;;;;;;6.38;1.92;;;;;;;;;;5083864;28;20093;-66
2021/04/26 10:46:19;;;;;;;8.70;2.35;;;;;;;;;;5089277;28;20024;-73
2021/04/26 10:49:03;;;;;;;6.68;1.92;;;;;;;;;;5081687;28;20035;-70
2021/04/26 10:51:31;;;;;;;8.13;2.42;;;;;;;;;;5087240;28;20077;-70
2021/04/26 10:53:57;;;;;;;12.63;2.60;;;;;;;;;;5087472;28;20030;-73
2021/04/26 10:56:24;;;;;;;10.70;2.20;;;;;;;;;;5094140;28;20497;-72
2021/04/26 10:58:52;;;;;;;12.05;2.78;;;;;;;;;;5087638;28;20571;-75
2021/04/26 11:01:38;;;;;;;12.35;3.10;;;;;;;;;;5087828;28;20081;-69
2021/04/26 11:04:07;;;;;;;15.57;2.38;;;;;;;;;;5090001;28;20028;-70
2021/04/26 11:06:33;;;;;;;12.05;3.10;;;;;;;;;;5088717;28;20032;-68
2021/04/26 11:09:11;;;;;;;6.40;2.20;;;;;;;;;;5085155;28;20035;-68
2021/04/26 11:11:47;;;;;;;9.63;2.33;;;;;;;;;;5083678;28;20367;-70
2021/04/26 11:14:20;;;;;;;10.02;2.75;;;;;;;;;;5085781;28;20032;-69
2021/04/26 11:16:54;;;;;;;9.90;2.42;;;;;;;;;;5089573;28;20035;-70
2021/04/26 11:19:20;;;;;;;18.77;3.33;;;;;;;;;;5084987;28;20032;-71
2021/04/26 11:21:49;;;;;;;8.52;2.47;;;;;;;;;;5087667;28;20081;-72
2021/04/26 11:24:24;;;;;;;13.73;2.38;;;;;;;;;;5088241;28;20024;-75
2021/04/26 11:27:08;;;;;;;6.78;1.95;;;;;;;;;;5085645;28;20111;-73
2021/04/26 11:29:49;;;;;;;9.18;2.13;;;;;;;;;;5075825;28;20048;-74
2021/04/26 11:32:16;;;;;;;9.13;2.05;;;;;;;;;;5079937;28;20024;-73
2021/04/26 11:34:48;;;;;;;9.20;2.22;;;;;;;;;;5079698;28;20024;-75
2021/04/26 11:37:14;;;;;;;8.50;2.15;;;;;;;;;;5077049;28;20063;-76
2021/04/26 11:39:41;;;;;;;9.40;3.03;;;;;;;;;;5074161;28;20118;-73
2021/04/26 11:42:07;;;;;;;10.10;2.65;;;;;;;;;;5076946;28;20054;-74
2021/04/26 11:44:37;;;;;;;9.63;2.30;;;;;;;;;;5081992;28;20099;-70
2021/04/26 11:47:13;;;;;;;12.43;2.90;;;;;;;;;;5082851;28;20570;-73
2021/04/26 11:49:42;;;;;;;7.78;2.40;;;;;;;;;;5075480;28;20032;-75
2021/04/26 11:52:11;;;;;;;6.15;1.98;;;;;;;;;;5077481;28;20032;-74
2021/04/26 11:54:38;;;;;;;10.23;2.03;;;;;;;;;;5080137;28;20036;-76
2021/04/26 11:57:04;;;;;;;8.90;2.38;;;;;;;;;;5079246;28;20055;-72
2021/04/26 11:59:31;;;;;;;13.68;3.08;;;;;;;;;;5075706;28;20020;-71
2021/04/26 12:01:57;;;;;;;10.02;2.47;;;;;;;;;;5076716;28;20076;-74
2021/04/26 12:04:33;;;;;;;11.10;2.47;;;;;;;;;;5078911;28;20047;-75
2021/04/26 12:07:00;;;;;;;7.28;2.20;;;;;;;;;;5083941;28;20034;-74
2021/04/26 12:09:26;;;;;;;13.05;3.25;;;;;;;;;;5086973;28;20077;-75
2021/04/26 12:12:10;;;;;;;12.32;2.90;;;;;;;;;;5086934;28;20432;-77
2021/04/26 12:14:37;;;;;;;11.93;2.53;;;;;;;;;;5082901;28;20024;-71
2021/04/26 12:17:16;;;;;;;12.52;2.75;;;;;;;;;;5087258;28;20043;-78
2021/04/26 12:19:42;;;;;;;12.85;2.38;;;;;;;;;;5086499;28;20024;-80
2021/04/26 12:22:08;;;;;;;11.95;2.95;;;;;;;;;;5083372;28;20056;-77
2021/04/26 12:24:34;;;;;;;8.70;2.28;;;;;;;;;;5087721;28;20500;-77
2021/04/26 12:27:07;;;;;;;12.65;3.13;;;;;;;;;;5082674;28;20482;-74
2021/04/26 12:29:33;;;;;;;11.90;3.10;;;;;;;;;;5087211;28;20039;-69
2021/04/26 12:32:10;;;;;;;9.48;3.10;;;;;;;;;;5086042;28;20020;-75
2021/04/26 12:34:54;;;;;;;9.82;2.42;;;;;;;;;;5081059;28;20022;-73
2021/04/26 12:37:25;;;;;;;13.80;3.55;;;;;;;;;;5086258;28;20030;-76
2021/04/26 12:39:51;;;;;;;10.65;2.08;;;;;;;;;;5089711;28;20118;-76
2021/04/26 12:42:21;;;;;;;10.18;2.90;;;;;;;;;;5088053;28;20020;-79
2021/04/26 12:44:49;;;;;;;9.93;3.22;;;;;;;;;;5089611;28;20020;-77
2021/04/26 12:47:23;;;;;;;13.10;2.30;;;;;;;;;;5085844;28;20024;-75
2021/04/26 12:49:49;;;;;;;11.25;2.47;;;;;;;;;;5080329;28;20361;-77
2021/04/26 12:52:16;;;;;;;8.88;2.03;;;;;;;;;;5092149;28;20375;-80
2021/04/26 12:54:58;;;;;;;10.60;2.97;;;;;;;;;;5092763;28;20327;-80
2021/04/26 12:57:24;;;;;;;;;;;;;;;;;;5089191;28;20379;-74
2021/04/26 12:59:50;;;;;;;14.48;3.35;;;;;;;;;;5086404;28;19977;-78
2021/04/26 13:02:28;;;;;;;12.20;2.80;;;;;;;;;;5088856;28;20394;-78
2021/04/26 13:04:56;;;;;;;12.48;2.20;;;;;;;;;;5081986;28;20032;-79
2021/04/26 13:07:22;;;;;;;10.88;2.83;;;;;;;;;;5084094;28;20089;-80
2021/04/26 13:09:59;;;;;;;11.98;2.50;;;;;;;;;;5092172;28;20059;-84
2021/04/26 13:12:28;;;;;;;13.75;2.42;;;;;;;;;;5080989;28;20062;-76
2021/04/26 13:14:54;;;;;;;9.52;2.33;;;;;;;;;;5079748;28;20031;-74
2021/04/26 13:17:31;;;;;;;12.77;2.53;;;;;;;;;;5089341;28;20046;-78
2021/04/26 13:19:58;;;;;;;15.68;2.47;;;;;;;;;;5089268;28;20107;-76
2021/04/26 13:22:28;;;;;;;14.75;2.72;;;;;;;;;;5091420;28;20110;-73
2021/04/26 13:24:58;;;;;;;11.80;3.15;;;;;;;;;;5092311;28;20100;-78
2021/04/26 13:27:24;;;;;;;9.82;3.20;;;;;;;;;;5088384;28;20059;-75
2021/04/26 13:29:52;;;;;;;8.57;2.50;;;;;;;;;;5090911;28;20558;-78
2021/04/26 13:32:18;;;;;;;9.43;2.80;;;;;;;;;;5092107;28;20054;-71
2021/04/26 13:34:47;;;;;;;9.63;2.95;;;;;;;;;;5092182;28;20024;-72
2021/04/26 13:37:13;;;;;;;10.60;2.75;;;;;;;;;;5089194;28;20020;-76
2021/04/26 13:39:39;;;;;;;6.72;2.83;;;;;;;;;;5090260;28;20489;-79
2021/04/26 13:42:06;;;;;;;11.70;2.58;;;;;;;;;;5073435;28;20062;-72
2021/04/26 13:44:32;;;;;;;10.27;2.95;;;;;;;;;;5090031;28;20042;-73
2021/04/26 13:46:58;;;;;;;22.77;3.78;;;;;;;;;;5086999;28;20024;-74
2021/04/26 13:49:24;;;;;;;15.93;3.42;;;;;;;;;;5090778;28;20119;-75
2021/04/26 13:51:52;;;;;;;12.57;3.60;;;;;;;;;;5092136;28;20410;-76
2021/04/26 13:54:18;;;;;;;18.23;3.15;;;;;;;;;;5091483;28;20020;-72
2021/04/26 13:56:45;;;;;;;7.97;2.38;;;;;;;;;;5087352;28;20035;-79
2021/04/26 13:59:11;;;;;;;11.23;1.95;;;;;;;;;;5086653;28;20121;-76
2021/04/26 14:01:38;;;;;;;14.02;3.13;;;;;;;;;;5089799;28;20166;-75
2021/04/26 14:04:04;;;;;;;11.77;2.50;;;;;;;;;;5090886;28;20027;-76
2021/04/26 14:06:30;;;;;;;14.20;2.60;;;;;;;;;;5088383;28;20063;-77
2021/04/26 14:08:56;;;;;;;15.80;3.22;;;;;;;;;;5090013;28;20036;-74
2021/04/26 14:11:22;;;;;;;9.93;3.28;;;;;;;;;;5090656;28;20036;-76
2021/04/26 14:13:49;;;;;;;15.15;3.10;;;;;;;;;;5088091;28;20398;-73
2021/04/26 14:16:15;;;;;;;15.35;2.75;;;;;;;;;;5087713;28;20028;-75
2021/04/26 14:18:41;;;;;;;10.57;2.45;;;;;;;;;;5084327;28;20032;-76
2021/04/26 14:21:07;;;;;;;15.20;2.75;;;;;;;;;;5088595;28;20052;-76
2021/04/26 14:23:33;;;;;;;18.77;3.92;;;;;;;;;;5087194;28;20024;-79
2021/04/26 14:26:01;;;;;;;12.68;3.33;;;;;;;;;;5085951;28;20038;-73
2021/04/26 14:28:27;;;;;;;10.68;2.38;;;;;;;;;;5090160;28;20107;-76
2021/04/26 14:30:53;;;;;;;10.32;2.88;;;;;;;;;;5088345;28;20071;-72
2021/04/26 14:33:19;;;;;;;12.13;4.22;;;;;;;;;;5088677;28;20024;-73
2021/04/26 14:35:45;;;;;;;21.02;3.05;;;;;;;;;;5076118;28;20031;-71
2021/04/26 14:38:15;;;;;;;18.63;2.97;;;;;;;;;;5090863;28;20093;-70
2021/04/26 14:40:41;;;;;;;7.70;2.10;;;;;;;;;;5091430;28;20028;-75